createdAt,value
2023-01-19T00:00:35.759Z,17.63
2023-01-19T00:03:22.769Z,18.03
2023-01-19T00:05:50.083Z,17.73
2023-01-19T00:08:17.543Z,18.80
2023-01-19T00:10:47.625Z,18.40
2023-01-19T00:13:16.569Z,18.47
2023-01-19T00:15:45.331Z,20.33
2023-01-19T00:18:12.289Z,18.40
2023-01-19T00:20:40.400Z,18.83
2023-01-19T00:23:10.558Z,17.20
2023-01-19T00:25:45.583Z,18.37
2023-01-19T00:28:14.728Z,17.90
2023-01-19T00:30:42.669Z,17.40
2023-01-19T00:33:10.769Z,16.87
2023-01-19T00:35:38.048Z,16.97
2023-01-19T00:38:05.176Z,17.23
2023-01-19T00:40:32.437Z,17.53
2023-01-19T00:43:00.630Z,18.33
2023-01-19T00:45:28.319Z,18.13
2023-01-19T00:47:57.225Z,17.47
2023-01-19T00:50:26.516Z,17.50
2023-01-19T00:52:54.998Z,18.13
2023-01-19T00:55:23.164Z,17.33
2023-01-19T00:57:50.741Z,16.83
2023-01-19T01:00:19.965Z,18.43
2023-01-19T01:02:47.805Z,16.00
2023-01-19T01:05:16.383Z,16.20
2023-01-19T01:07:45.255Z,16.27
2023-01-19T01:10:21.715Z,16.63
2023-01-19T01:12:57.540Z,16.93
2023-01-19T01:15:28.336Z,16.47
2023-01-19T01:17:55.908Z,16.30
2023-01-19T01:20:28.701Z,17.77
2023-01-19T01:22:57.036Z,15.90
2023-01-19T01:25:26.389Z,17.60
2023-01-19T01:27:54.465Z,18.97
2023-01-19T01:30:22.226Z,17.13
2023-01-19T01:32:49.437Z,16.00
2023-01-19T01:35:16.890Z,17.77
2023-01-19T01:37:44.268Z,16.90
2023-01-19T01:40:17.009Z,17.43
2023-01-19T01:42:45.475Z,18.20
2023-01-19T01:45:40.386Z,17.10
2023-01-19T01:48:16.184Z,17.07
2023-01-19T01:51:12.412Z,16.77
2023-01-19T01:53:40.867Z,17.60
2023-01-19T01:56:12.758Z,17.13
2023-01-19T01:58:40.747Z,17.53
2023-01-19T02:01:29.327Z,19.57
2023-01-19T02:03:57.881Z,16.83
2023-01-19T02:06:26.431Z,17.73
2023-01-19T02:09:22.408Z,24.83
2023-01-19T02:12:08.878Z,18.17
2023-01-19T02:14:39.310Z,18.03
2023-01-19T02:17:06.982Z,16.33
2023-01-19T02:19:42.602Z,16.47
2023-01-19T02:22:17.892Z,17.73
2023-01-19T02:24:45.063Z,19.23
2023-01-19T02:27:13.198Z,17.80
2023-01-19T02:29:40.334Z,17.53
2023-01-19T02:32:07.711Z,17.00
2023-01-19T02:34:35.622Z,18.23
2023-01-19T02:37:14.814Z,17.73
2023-01-19T02:39:45.401Z,18.03
2023-01-19T02:42:43.737Z,17.07
2023-01-19T02:45:14.494Z,16.97
2023-01-19T02:47:52.268Z,17.93
2023-01-19T02:50:57.730Z,17.80
2023-01-19T02:53:43.624Z,16.33
2023-01-19T02:56:30.801Z,16.90
2023-01-19T02:59:00.928Z,17.23
2023-01-19T03:01:36.602Z,16.57
2023-01-19T03:04:19.574Z,16.63
2023-01-19T03:07:00.785Z,15.77
2023-01-19T03:10:03.111Z,17.73
2023-01-19T03:13:10.935Z,16.93
2023-01-19T03:15:54.470Z,16.53
2023-01-19T03:18:24.756Z,18.30
2023-01-19T03:20:56.004Z,17.70
2023-01-19T03:23:28.075Z,17.77
2023-01-19T03:25:57.887Z,17.60
2023-01-19T03:28:26.776Z,15.97
2023-01-19T03:31:19.695Z,18.10
2023-01-19T03:33:51.033Z,16.80
2023-01-19T03:36:41.577Z,17.63
2023-01-19T03:39:11.370Z,17.60
2023-01-19T03:41:41.339Z,17.13
2023-01-19T03:44:08.798Z,18.47
2023-01-19T03:46:36.189Z,17.40
2023-01-19T03:49:03.276Z,17.37
2023-01-19T03:51:30.759Z,17.77
2023-01-19T03:53:57.695Z,20.23
2023-01-19T03:56:25.835Z,19.43
2023-01-19T03:58:52.905Z,18.00
2023-01-19T04:01:23.415Z,19.90
2023-01-19T04:03:51.401Z,20.27
2023-01-19T04:06:19.862Z,20.63
2023-01-19T04:08:51.514Z,21.33
2023-01-19T04:11:19.178Z,20.50
2023-01-19T04:13:46.173Z,22.30
2023-01-19T04:16:13.573Z,19.57
2023-01-19T04:18:41.744Z,21.37
2023-01-19T04:21:09.051Z,21.50
2023-01-19T04:23:36.011Z,20.00
2023-01-19T04:26:07.968Z,20.70
2023-01-19T04:28:37.211Z,20.10
2023-01-19T04:31:06.460Z,20.33
2023-01-19T04:33:34.326Z,20.07
2023-01-19T04:36:01.848Z,18.83
2023-01-19T04:38:28.881Z,19.53
2023-01-19T04:40:56.262Z,18.83
2023-01-19T04:43:24.008Z,18.87
2023-01-19T04:45:51.589Z,19.77
2023-01-19T04:48:19.334Z,20.30
2023-01-19T04:50:47.456Z,19.47
2023-01-19T04:53:16.337Z,18.27
2023-01-19T04:55:43.576Z,18.67
2023-01-19T04:58:10.763Z,18.27
2023-01-19T05:00:38.035Z,18.80
2023-01-19T05:03:05.624Z,18.30
2023-01-19T05:05:33.304Z,19.07
2023-01-19T05:08:00.689Z,18.67
2023-01-19T05:10:28.531Z,18.90
2023-01-19T05:12:55.979Z,17.97
2023-01-19T05:15:23.660Z,16.70
2023-01-19T05:17:50.700Z,17.37
2023-01-19T05:20:18.099Z,16.50
2023-01-19T05:22:54.272Z,16.83
2023-01-19T05:25:21.548Z,16.77
2023-01-19T05:27:48.710Z,16.70
2023-01-19T05:30:16.443Z,16.00
2023-01-19T05:32:43.586Z,15.73
2023-01-19T05:35:10.880Z,15.67
2023-01-19T05:37:38.139Z,14.33
2023-01-19T05:40:06.981Z,15.90
2023-01-19T05:42:34.203Z,14.90
2023-01-19T05:45:01.436Z,15.33
2023-01-19T05:47:29.914Z,15.37
2023-01-19T05:49:57.528Z,14.83
2023-01-19T05:52:27.582Z,14.43
2023-01-19T05:54:55.273Z,14.27
2023-01-19T05:57:23.150Z,15.33
2023-01-19T05:59:50.511Z,14.43
2023-01-19T06:02:17.565Z,14.90
2023-01-19T06:04:45.022Z,15.13
2023-01-19T06:07:12.007Z,15.17
2023-01-19T06:09:39.280Z,14.47
2023-01-19T06:12:06.561Z,15.47
2023-01-19T06:14:33.865Z,30.87
2023-01-19T06:17:00.960Z,17.07
2023-01-19T06:19:28.367Z,14.20
2023-01-19T06:21:55.387Z,14.03
2023-01-19T06:24:23.191Z,14.17
2023-01-19T06:26:50.191Z,14.40
2023-01-19T06:29:18.447Z,13.60
2023-01-19T06:31:45.514Z,13.10
2023-01-19T06:34:12.848Z,16.27
2023-01-19T06:36:39.948Z,12.83
2023-01-19T06:39:07.233Z,14.10
2023-01-19T06:41:34.995Z,13.87
2023-01-19T06:44:02.942Z,13.40
2023-01-19T06:46:30.369Z,12.60
2023-01-19T06:48:57.657Z,12.43
2023-01-19T06:51:25.538Z,13.17
2023-01-19T06:53:52.803Z,12.00
2023-01-19T06:56:19.888Z,13.63
2023-01-19T06:58:48.641Z,12.73
2023-01-19T07:01:15.776Z,12.90
2023-01-19T07:03:46.145Z,12.53
2023-01-19T07:06:13.851Z,11.63
2023-01-19T07:08:41.137Z,12.30
2023-01-19T07:11:25.462Z,12.67
2023-01-19T07:13:58.198Z,12.90
2023-01-19T07:16:25.363Z,12.70
2023-01-19T07:18:52.904Z,13.27
2023-01-19T07:21:20.099Z,13.87
2023-01-19T07:23:53.695Z,13.03
2023-01-19T07:26:21.969Z,12.87
2023-01-19T07:28:49.704Z,12.67
2023-01-19T07:31:17.920Z,13.20
2023-01-19T07:33:46.786Z,13.10
2023-01-19T07:36:13.829Z,14.57
2023-01-19T07:38:41.058Z,12.90
2023-01-19T07:41:10.074Z,14.33
2023-01-19T07:43:37.618Z,17.00
2023-01-19T07:46:06.238Z,13.23
2023-01-19T07:48:33.602Z,14.83
2023-01-19T07:51:01.861Z,14.37
2023-01-19T07:53:29.092Z,14.50
2023-01-19T07:55:57.031Z,14.93
2023-01-19T07:58:25.309Z,13.47
2023-01-19T08:00:52.669Z,14.20
2023-01-19T08:03:20.312Z,14.77
2023-01-19T08:05:51.621Z,13.63
2023-01-19T08:08:19.689Z,14.90
2023-01-19T08:10:50.473Z,14.53
2023-01-19T08:13:18.617Z,14.50
2023-01-19T08:15:48.781Z,13.93
2023-01-19T08:18:16.147Z,15.03
2023-01-19T08:20:43.398Z,14.30
2023-01-19T08:23:11.055Z,13.50
2023-01-19T08:25:47.151Z,13.63
2023-01-19T08:28:16.874Z,14.00
2023-01-19T08:30:45.026Z,13.67
2023-01-19T08:33:14.050Z,12.87
2023-01-19T08:35:43.351Z,12.27
2023-01-19T08:38:10.908Z,13.63
2023-01-19T08:40:40.433Z,14.00
2023-01-19T08:43:11.039Z,14.00
2023-01-19T08:45:46.672Z,13.40
2023-01-19T08:48:18.716Z,14.00
2023-01-19T08:50:47.685Z,14.87
2023-01-19T08:53:16.226Z,14.40
2023-01-19T08:55:43.278Z,14.03
2023-01-19T08:58:10.724Z,13.03
2023-01-19T09:00:39.338Z,13.23
2023-01-19T09:03:09.047Z,13.63
2023-01-19T09:05:38.773Z,14.17
2023-01-19T09:08:13.001Z,13.70
2023-01-19T09:10:44.756Z,12.10
2023-01-19T09:13:13.035Z,12.40
2023-01-19T09:15:41.625Z,12.77
2023-01-19T09:18:15.368Z,12.27
2023-01-19T09:20:45.115Z,12.33
2023-01-19T09:23:14.543Z,12.00
2023-01-19T09:25:43.380Z,11.50
2023-01-19T09:28:12.437Z,12.17
2023-01-19T09:30:40.992Z,10.63
2023-01-19T09:33:11.187Z,12.30
2023-01-19T09:35:39.722Z,11.40
2023-01-19T09:38:09.112Z,11.63
2023-01-19T09:40:56.567Z,11.47
2023-01-19T09:43:36.436Z,10.83
2023-01-19T09:46:33.994Z,11.13
2023-01-19T09:49:13.435Z,12.40
2023-01-19T09:51:44.598Z,12.20
2023-01-19T09:54:12.781Z,11.33
2023-01-19T09:56:40.907Z,12.10
2023-01-19T09:59:30.353Z,11.70
2023-01-19T10:02:21.648Z,12.27
2023-01-19T10:05:03.857Z,12.00
2023-01-19T10:07:44.160Z,12.03
2023-01-19T10:10:20.852Z,11.50
2023-01-19T10:12:53.870Z,12.13
2023-01-19T10:15:30.553Z,11.83
2023-01-19T10:18:00.487Z,12.87
2023-01-19T10:20:40.014Z,12.07
2023-01-19T10:23:28.569Z,10.77
2023-01-19T10:25:59.605Z,10.00
2023-01-19T10:28:27.653Z,10.00
2023-01-19T10:30:56.153Z,9.57
2023-01-19T10:33:23.306Z,10.30
2023-01-19T10:35:51.137Z,9.43
2023-01-19T10:38:22.359Z,9.77
2023-01-19T10:41:04.687Z,11.50
2023-01-19T10:43:34.559Z,10.43
2023-01-19T10:46:14.658Z,10.83
2023-01-19T10:48:42.611Z,9.90
2023-01-19T10:51:11.075Z,9.97
2023-01-19T10:53:38.557Z,10.60
2023-01-19T10:56:21.951Z,9.93
2023-01-19T10:58:49.027Z,10.23
2023-01-19T11:01:18.518Z,11.33
2023-01-19T11:03:45.923Z,11.37
2023-01-19T11:06:16.169Z,11.63
2023-01-19T11:08:45.305Z,10.77
2023-01-19T11:11:13.435Z,11.20
2023-01-19T11:13:42.235Z,11.40
2023-01-19T11:16:34.849Z,11.57
2023-01-19T11:19:03.625Z,11.70
2023-01-19T11:21:32.791Z,12.23
2023-01-19T11:24:03.148Z,13.07
2023-01-19T11:26:42.951Z,12.73
2023-01-19T11:29:22.823Z,12.90
2023-01-19T11:31:51.523Z,11.97
2023-01-19T11:34:33.994Z,13.13
2023-01-19T11:37:21.447Z,13.57
2023-01-19T11:40:11.749Z,13.77
2023-01-19T11:42:39.820Z,14.10
2023-01-19T11:45:16.039Z,12.57
2023-01-19T11:47:45.993Z,13.90
2023-01-19T11:50:31.626Z,12.20
2023-01-19T11:53:05.779Z,12.80
2023-01-19T11:55:48.776Z,13.03
2023-01-19T11:58:18.095Z,12.77
2023-01-19T12:00:52.940Z,12.40
2023-01-19T12:03:31.801Z,12.40
2023-01-19T12:06:04.595Z,12.70
2023-01-19T12:08:36.893Z,13.33
2023-01-19T12:11:05.156Z,14.17
2023-01-19T12:13:34.375Z,11.90
2023-01-19T12:16:09.358Z,13.03
2023-01-19T12:18:48.105Z,12.40
2023-01-19T12:21:15.071Z,12.97
2023-01-19T12:23:56.276Z,13.63
2023-01-19T12:26:30.843Z,12.87
2023-01-19T12:29:06.975Z,12.87
2023-01-19T12:31:35.163Z,12.20
2023-01-19T12:34:38.883Z,13.40
2023-01-19T12:37:26.955Z,12.77
2023-01-19T12:39:56.627Z,13.70
2023-01-19T12:42:25.081Z,14.20
2023-01-19T12:45:05.673Z,14.27
2023-01-19T12:47:33.154Z,12.87
2023-01-19T12:50:07.158Z,13.67
2023-01-19T12:52:51.688Z,13.77
2023-01-19T12:55:31.547Z,14.30
2023-01-19T12:58:12.810Z,14.70
2023-01-19T13:00:43.399Z,13.63
2023-01-19T13:03:19.629Z,14.43
2023-01-19T13:05:54.586Z,15.30
2023-01-19T13:08:28.318Z,15.30
2023-01-19T13:11:09.640Z,13.37
2023-01-19T13:14:02.514Z,14.10
2023-01-19T13:16:29.662Z,13.70
2023-01-19T13:19:05.844Z,15.20
2023-01-19T13:21:34.407Z,14.70
2023-01-19T13:24:02.846Z,15.07
2023-01-19T13:26:52.992Z,14.17
2023-01-19T13:29:49.404Z,14.17
2023-01-19T13:32:38.142Z,13.97
2023-01-19T13:35:06.894Z,13.57
2023-01-19T13:38:00.877Z,14.13
2023-01-19T13:41:08.011Z,16.47
2023-01-19T13:44:03.297Z,13.93
2023-01-19T13:46:51.659Z,14.67
2023-01-19T13:49:37.042Z,13.00
2023-01-19T13:52:30.776Z,13.30
2023-01-19T13:55:02.856Z,14.43
2023-01-19T13:57:32.138Z,15.07
2023-01-19T14:00:04.838Z,13.87
2023-01-19T14:02:32.414Z,13.53
2023-01-19T14:05:31.716Z,14.73
2023-01-19T14:08:01.971Z,13.60
2023-01-19T14:10:31.359Z,13.73
2023-01-19T14:13:00.605Z,13.03
2023-01-19T14:15:29.221Z,15.47
2023-01-19T14:18:33.297Z,13.57
2023-01-19T14:21:07.672Z,14.20
2023-01-19T14:23:55.428Z,14.10
2023-01-19T14:26:43.004Z,13.50
2023-01-19T14:29:10.220Z,14.57
2023-01-19T14:32:05.822Z,14.03
2023-01-19T14:34:34.306Z,13.10
2023-01-19T14:37:03.332Z,13.53
2023-01-19T14:39:35.259Z,12.90
2023-01-19T14:42:05.395Z,13.93
2023-01-19T14:44:37.091Z,12.03
2023-01-19T14:47:05.568Z,12.90
2023-01-19T14:49:41.825Z,12.77
2023-01-19T14:52:34.077Z,13.27
2023-01-19T14:55:03.897Z,12.43
2023-01-19T14:57:30.852Z,13.33
2023-01-19T14:59:58.108Z,13.40
2023-01-19T15:02:25.318Z,13.23
2023-01-19T15:04:55.451Z,13.20
2023-01-19T15:07:25.182Z,12.63
2023-01-19T15:09:52.864Z,11.77
2023-01-19T15:12:28.179Z,11.63
2023-01-19T15:14:56.035Z,12.23
2023-01-19T15:17:25.414Z,11.47
2023-01-19T15:19:56.682Z,12.43
2023-01-19T15:22:27.469Z,11.67
2023-01-19T15:24:57.711Z,11.33
2023-01-19T15:27:24.779Z,12.17
2023-01-19T15:29:52.057Z,10.87
2023-01-19T15:32:19.071Z,11.27
2023-01-19T15:34:46.316Z,12.50
2023-01-19T15:37:13.326Z,12.33
2023-01-19T15:39:40.625Z,12.67
2023-01-19T15:42:14.216Z,11.77
2023-01-19T15:44:41.508Z,10.57
2023-01-19T15:47:09.914Z,12.57
2023-01-19T15:49:37.118Z,11.60
2023-01-19T15:52:04.224Z,12.27
2023-01-19T15:54:31.504Z,11.43
2023-01-19T15:56:58.587Z,12.27
2023-01-19T15:59:26.055Z,11.90
2023-01-19T16:01:53.282Z,12.93
2023-01-19T16:04:20.660Z,11.23
2023-01-19T16:06:47.644Z,11.50
2023-01-19T16:09:18.479Z,10.63
2023-01-19T16:11:45.880Z,11.50
2023-01-19T16:14:13.132Z,12.13
2023-01-19T16:16:40.222Z,11.73
2023-01-19T16:19:07.485Z,10.43
2023-01-19T16:21:34.596Z,12.20
2023-01-19T16:24:01.814Z,11.47
2023-01-19T16:26:34.537Z,9.80
2023-01-19T16:29:10.784Z,10.13
2023-01-19T16:31:42.407Z,10.80
2023-01-19T16:34:09.898Z,11.30
2023-01-19T16:36:39.631Z,10.20
2023-01-19T16:39:12.309Z,9.80
2023-01-19T16:41:39.844Z,10.83
2023-01-19T16:44:08.223Z,9.37
2023-01-19T16:46:38.575Z,8.70
2023-01-19T16:49:10.767Z,9.77
2023-01-19T16:51:37.846Z,8.73
2023-01-19T16:54:05.178Z,8.33
2023-01-19T16:56:32.339Z,8.77
2023-01-19T16:59:00.086Z,7.23
2023-01-19T17:01:29.065Z,7.83
2023-01-19T17:03:56.788Z,8.27
2023-01-19T17:06:24.731Z,8.77
2023-01-19T17:08:52.733Z,7.80
2023-01-19T17:11:31.490Z,7.93
2023-01-19T17:14:07.729Z,8.93
2023-01-19T17:16:35.530Z,9.07
2023-01-19T17:19:05.199Z,8.73
2023-01-19T17:21:32.767Z,9.03
2023-01-19T17:24:00.474Z,9.47
2023-01-19T17:26:28.506Z,8.70
2023-01-19T17:29:03.821Z,8.83
2023-01-19T17:31:32.203Z,10.10
2023-01-19T17:34:00.353Z,10.30
2023-01-19T17:36:28.890Z,10.40
2023-01-19T17:38:58.482Z,11.60
2023-01-19T17:41:28.297Z,13.93
2023-01-19T17:43:59.605Z,14.27
2023-01-19T17:46:27.877Z,15.77
2023-01-19T17:49:02.216Z,13.53
2023-01-19T17:51:29.966Z,12.13
2023-01-19T17:53:57.661Z,13.10
2023-01-19T17:56:29.479Z,12.27
2023-01-19T17:58:57.810Z,13.03
2023-01-19T18:01:30.811Z,11.93
2023-01-19T18:03:59.069Z,11.37
2023-01-19T18:06:26.086Z,11.63
2023-01-19T18:08:54.177Z,13.13
2023-01-19T18:11:22.012Z,10.93
2023-01-19T18:13:50.577Z,12.00
2023-01-19T18:16:25.579Z,11.83
2023-01-19T18:18:54.223Z,11.13
2023-01-19T18:21:22.531Z,13.47
2023-01-19T18:23:51.000Z,11.37
2023-01-19T18:26:20.902Z,12.10
2023-01-19T18:28:48.687Z,10.87
2023-01-19T18:31:19.043Z,11.47
2023-01-19T18:33:48.423Z,12.03
2023-01-19T18:36:16.759Z,12.70
2023-01-19T18:38:44.955Z,12.63
2023-01-19T18:41:14.547Z,13.40
2023-01-19T18:43:42.140Z,12.97
2023-01-19T18:46:09.950Z,14.13
2023-01-19T18:48:38.494Z,14.40
2023-01-19T18:51:10.632Z,13.33
2023-01-19T18:53:38.122Z,13.70
2023-01-19T18:56:06.335Z,13.33
2023-01-19T18:58:36.829Z,14.00
2023-01-19T19:01:04.166Z,14.07
2023-01-19T19:03:31.468Z,14.17
2023-01-19T19:06:03.430Z,13.13
2023-01-19T19:08:30.806Z,14.83
2023-01-19T19:10:57.778Z,14.80
2023-01-19T19:13:25.378Z,15.37
2023-01-19T19:15:52.652Z,15.77
2023-01-19T19:18:19.923Z,15.43
2023-01-19T19:20:46.912Z,15.87
2023-01-19T19:23:14.286Z,17.43
2023-01-19T19:25:41.210Z,16.30
2023-01-19T19:28:08.500Z,18.17
2023-01-19T19:30:37.870Z,16.77
2023-01-19T19:33:05.346Z,17.57
2023-01-19T19:35:32.340Z,17.63
2023-01-19T19:38:00.050Z,17.33
2023-01-19T19:40:28.112Z,15.93
2023-01-19T19:42:58.341Z,17.40
2023-01-19T19:45:25.662Z,16.00
2023-01-19T19:47:52.890Z,14.77
2023-01-19T19:50:19.897Z,16.17
2023-01-19T19:52:47.131Z,16.97
2023-01-19T19:55:14.261Z,16.93
2023-01-19T19:57:41.485Z,18.87
2023-01-19T20:00:09.206Z,18.23
2023-01-19T20:02:36.861Z,17.03
2023-01-19T20:05:05.042Z,17.97
2023-01-19T20:07:32.844Z,17.60
2023-01-19T20:09:59.938Z,18.33
2023-01-19T20:12:27.538Z,18.40
2023-01-19T20:14:54.484Z,16.17
2023-01-19T20:17:23.177Z,18.03
2023-01-19T20:19:50.187Z,16.70
2023-01-19T20:22:17.408Z,15.83
2023-01-19T20:24:44.592Z,16.10
2023-01-19T20:27:11.842Z,16.37
2023-01-19T20:29:38.831Z,18.27
2023-01-19T20:32:06.186Z,18.00
2023-01-19T20:34:33.815Z,16.50
2023-01-19T20:37:03.225Z,16.97
2023-01-19T20:39:33.284Z,17.77
2023-01-19T20:42:01.277Z,17.97
2023-01-19T20:44:28.363Z,16.60
2023-01-19T20:46:55.990Z,16.53
2023-01-19T20:49:23.650Z,15.77
2023-01-19T20:51:52.236Z,18.00
2023-01-19T20:54:22.353Z,17.43
2023-01-19T20:56:49.735Z,16.77
2023-01-19T20:59:16.712Z,19.23
2023-01-19T21:01:44.632Z,18.17
2023-01-19T21:04:12.337Z,16.67
2023-01-19T21:06:40.558Z,18.47
2023-01-19T21:09:09.230Z,18.77
2023-01-19T21:11:38.880Z,16.63
2023-01-19T21:14:06.591Z,19.00
2023-01-19T21:16:35.563Z,17.70
2023-01-19T21:19:02.904Z,18.33
2023-01-19T21:21:31.634Z,17.20
2023-01-19T21:24:02.744Z,15.77
2023-01-19T21:26:30.966Z,16.53
2023-01-19T21:28:59.159Z,16.80
2023-01-19T21:31:27.934Z,17.77
2023-01-19T21:33:56.425Z,17.93
2023-01-19T21:36:24.665Z,15.87
2023-01-19T21:38:52.458Z,15.43
2023-01-19T21:41:20.208Z,16.97
2023-01-19T21:43:47.641Z,16.33
2023-01-19T21:46:19.369Z,16.67
2023-01-19T21:48:46.437Z,19.87
2023-01-19T21:51:14.881Z,17.03
2023-01-19T21:53:42.074Z,16.03
2023-01-19T21:56:10.929Z,17.17
2023-01-19T21:58:38.081Z,14.23
2023-01-19T22:01:10.841Z,15.87
2023-01-19T22:03:38.050Z,16.40
2023-01-19T22:06:12.626Z,15.33
2023-01-19T22:08:40.631Z,17.47
2023-01-19T22:11:11.528Z,15.97
2023-01-19T22:13:39.256Z,15.80
2023-01-19T22:16:08.992Z,17.27
2023-01-19T22:18:36.762Z,14.43
2023-01-19T22:21:08.911Z,15.77
2023-01-19T22:23:36.562Z,15.53
2023-01-19T22:26:04.773Z,15.37
2023-01-19T22:28:32.224Z,15.73
2023-01-19T22:31:11.194Z,15.50
2023-01-19T22:33:38.266Z,15.50
2023-01-19T22:36:20.532Z,14.43
2023-01-19T22:39:01.446Z,14.40
2023-01-19T22:41:33.571Z,14.57
2023-01-19T22:44:03.924Z,16.93
2023-01-19T22:46:33.890Z,17.23
2023-01-19T22:49:01.566Z,16.80
2023-01-19T22:51:30.531Z,16.40
2023-01-19T22:53:57.972Z,17.40
2023-01-19T22:56:29.995Z,16.20
2023-01-19T22:58:57.822Z,18.07
2023-01-19T23:01:33.113Z,16.13
2023-01-19T23:04:01.965Z,16.63
2023-01-19T23:06:32.202Z,16.37
2023-01-19T23:09:01.333Z,15.80
2023-01-19T23:11:35.606Z,17.47
2023-01-19T23:14:04.139Z,18.67
2023-01-19T23:16:31.384Z,17.23
2023-01-19T23:18:58.803Z,17.77
2023-01-19T23:21:28.972Z,16.60
2023-01-19T23:23:58.700Z,16.37
2023-01-19T23:26:26.667Z,16.23
2023-01-19T23:28:55.897Z,17.43
2023-01-19T23:31:28.912Z,17.53
2023-01-19T23:34:04.620Z,16.10
2023-01-19T23:36:33.802Z,16.47
2023-01-19T23:39:04.832Z,17.53
2023-01-19T23:41:34.630Z,17.23
2023-01-19T23:44:02.256Z,17.17
2023-01-19T23:46:29.998Z,16.67
2023-01-19T23:48:57.107Z,16.53
2023-01-19T23:51:29.924Z,16.93
2023-01-19T23:53:58.753Z,17.10
2023-01-19T23:56:30.071Z,16.67
2023-01-19T23:58:59.680Z,16.83
